createdAt,value
2018-07-19T00:02:30.739Z,75.30
2018-07-19T00:05:05.395Z,75.50
2018-07-19T00:07:39.866Z,75.50
2018-07-19T00:10:14.705Z,75.70
2018-07-19T00:12:49.388Z,75.80
2018-07-19T00:15:24.014Z,76.00
2018-07-19T00:17:58.835Z,76.00
2018-07-19T00:20:33.492Z,76.30
2018-07-19T00:23:08.165Z,76.40
2018-07-19T00:25:42.920Z,76.40
2018-07-19T00:28:17.547Z,76.60
2018-07-19T00:30:52.384Z,76.60
2018-07-19T00:33:26.862Z,76.70
2018-07-19T00:36:01.872Z,76.80
2018-07-19T00:38:36.133Z,77.00
2018-07-19T00:41:10.842Z,76.90
2018-07-19T00:43:45.528Z,77.10
2018-07-19T00:46:20.251Z,77.30
2018-07-19T00:48:55.040Z,77.30
2018-07-19T00:51:30.025Z,77.50
2018-07-19T00:54:04.579Z,77.60
2018-07-19T00:56:39.310Z,77.50
2018-07-19T00:59:14.157Z,77.70
2018-07-19T01:01:48.900Z,77.80
2018-07-19T01:04:23.762Z,77.70
2018-07-19T01:06:58.402Z,77.80
2018-07-19T01:09:32.846Z,77.60
2018-07-19T01:12:08.244Z,77.70
2018-07-19T01:14:43.249Z,77.70
2018-07-19T01:17:18.358Z,77.80
2018-07-19T01:19:53.179Z,77.80
2018-07-19T01:22:28.420Z,78.10
2018-07-19T01:25:03.204Z,78.50
2018-07-19T01:27:37.898Z,78.10
2018-07-19T01:30:12.715Z,78.10
2018-07-19T01:32:47.545Z,78.20
2018-07-19T01:35:22.339Z,78.20
2018-07-19T01:37:56.983Z,78.30
2018-07-19T01:40:31.699Z,78.20
2018-07-19T01:43:06.350Z,78.40
2018-07-19T01:45:41.333Z,78.40
2018-07-19T01:48:15.744Z,78.30
2018-07-19T01:50:50.468Z,78.30
2018-07-19T01:53:25.260Z,78.50
2018-07-19T01:55:59.982Z,78.60
2018-07-19T01:58:34.817Z,78.70
2018-07-19T02:01:09.508Z,78.70
2018-07-19T02:03:44.266Z,78.50
2018-07-19T02:06:19.013Z,78.40
2018-07-19T02:08:53.613Z,78.40
2018-07-19T02:11:28.354Z,78.40
2018-07-19T02:16:37.720Z,78.70
2018-07-19T02:19:12.886Z,78.70
2018-07-19T02:21:47.116Z,78.80
2018-07-19T02:24:21.800Z,79.00
2018-07-19T02:26:56.453Z,78.90
2018-07-19T02:29:31.343Z,79.00
2018-07-19T02:32:05.899Z,79.20
2018-07-19T02:34:40.632Z,79.20
2018-07-19T02:37:15.396Z,79.10
2018-07-19T02:39:50.548Z,79.10
2018-07-19T02:42:24.805Z,79.00
2018-07-19T02:44:59.642Z,79.10
2018-07-19T02:47:34.924Z,79.20
2018-07-19T02:50:09.164Z,79.20
2018-07-19T02:52:43.878Z,79.20
2018-07-19T02:55:18.700Z,79.30
2018-07-19T02:57:53.376Z,79.30
2018-07-19T03:00:27.772Z,79.40
2018-07-19T03:03:02.606Z,79.40
2018-07-19T03:05:37.278Z,79.50
2018-07-19T03:08:15.555Z,79.60
2018-07-19T03:10:49.896Z,79.80
2018-07-19T03:13:24.250Z,79.70
2018-07-19T03:15:58.865Z,79.70
2018-07-19T03:18:34.076Z,79.80
2018-07-19T03:21:08.685Z,79.90
2018-07-19T03:23:44.057Z,80.10
2018-07-19T03:26:18.193Z,80.00
2018-07-19T03:28:52.977Z,80.20
2018-07-19T03:31:27.557Z,80.20
2018-07-19T03:34:03.606Z,80.30
2018-07-19T03:36:38.411Z,80.40
2018-07-19T03:39:12.741Z,80.40
2018-07-19T03:41:47.470Z,80.50
2018-07-19T03:44:23.389Z,80.70
2018-07-19T03:46:57.974Z,80.80
2018-07-19T03:49:32.632Z,81.20
2018-07-19T03:52:07.385Z,81.20
2018-07-19T03:54:42.232Z,81.20
2018-07-19T03:57:16.855Z,82.10
2018-07-19T03:59:51.552Z,81.20
2018-07-19T04:02:26.321Z,81.30
2018-07-19T04:05:01.003Z,81.30
2018-07-19T04:07:35.764Z,81.30
2018-07-19T04:10:10.593Z,81.30
2018-07-19T04:12:45.129Z,81.40
2018-07-19T04:15:19.887Z,81.40
2018-07-19T04:17:55.686Z,81.50
2018-07-19T04:20:31.947Z,81.40
2018-07-19T04:23:07.108Z,81.40
2018-07-19T04:25:41.620Z,81.40
2018-07-19T04:28:16.539Z,81.60
2018-07-19T04:30:51.278Z,82.20
2018-07-19T04:33:25.994Z,81.50
2018-07-19T04:36:00.746Z,81.70
2018-07-19T04:38:35.873Z,81.80
2018-07-19T04:41:12.425Z,81.70
2018-07-19T04:43:47.027Z,81.70
2018-07-19T04:46:21.762Z,81.40
2018-07-19T04:48:56.521Z,81.30
2018-07-19T04:51:31.265Z,81.10
2018-07-19T04:54:06.697Z,80.90
2018-07-19T04:56:41.604Z,81.00
2018-07-19T04:59:16.969Z,81.10
2018-07-19T05:01:51.112Z,81.20
2018-07-19T05:04:25.675Z,81.10
2018-07-19T05:07:00.471Z,80.70
2018-07-19T05:09:35.397Z,80.30
2018-07-19T05:12:10.053Z,79.40
2018-07-19T05:14:44.960Z,78.30
2018-07-19T05:17:19.490Z,77.60
2018-07-19T05:19:54.168Z,77.50
2018-07-19T05:22:29.011Z,77.30
2018-07-19T05:25:03.970Z,76.50
2018-07-19T05:27:38.717Z,76.70
2018-07-19T05:30:13.054Z,76.80
2018-07-19T05:32:47.612Z,75.30
2018-07-19T05:35:22.671Z,75.00
2018-07-19T05:37:57.469Z,72.90
2018-07-19T05:40:32.771Z,73.30
2018-07-19T05:43:07.797Z,70.20
2018-07-19T05:45:42.439Z,68.90
2018-07-19T05:48:17.129Z,68.50
2018-07-19T05:50:51.796Z,62.50
2018-07-19T05:53:26.540Z,62.80
2018-07-19T05:56:01.763Z,63.10
2018-07-19T05:58:36.058Z,64.30
2018-07-19T06:01:10.997Z,63.10
2018-07-19T06:03:45.670Z,61.90
2018-07-19T06:06:21.362Z,62.30
2018-07-19T06:08:56.318Z,60.20
2018-07-19T06:11:30.845Z,56.90
2018-07-19T06:14:05.854Z,56.10
2018-07-19T06:16:41.079Z,54.30
2018-07-19T06:19:15.686Z,54.00
2018-07-19T06:21:50.462Z,52.70
2018-07-19T06:24:26.225Z,52.40
2018-07-19T06:27:00.831Z,49.40
2018-07-19T06:29:35.688Z,50.10
2018-07-19T06:32:10.852Z,48.90
2018-07-19T06:34:45.892Z,47.00
2018-07-19T06:37:21.276Z,47.70
2018-07-19T06:39:55.395Z,47.30
2018-07-19T06:42:30.130Z,46.80
2018-07-19T06:45:05.024Z,48.00
2018-07-19T06:47:39.765Z,45.80
2018-07-19T06:52:49.119Z,45.80
2018-07-19T06:55:23.722Z,45.20
2018-07-19T06:57:58.691Z,43.40
2018-07-19T07:00:32.989Z,43.90
2018-07-19T07:03:08.294Z,42.70
2018-07-19T07:05:43.236Z,42.80
2018-07-19T07:08:18.112Z,41.20
2018-07-19T07:10:52.692Z,41.00
2018-07-19T07:13:27.639Z,41.10
2018-07-19T07:16:02.186Z,41.00
2018-07-19T07:18:37.525Z,40.90
2018-07-19T07:21:12.686Z,40.70
2018-07-19T07:23:47.244Z,41.30
2018-07-19T07:26:21.891Z,40.10
2018-07-19T07:28:56.463Z,40.70
2018-07-19T07:31:31.220Z,40.90
2018-07-19T07:34:05.819Z,41.30
2018-07-19T07:36:40.509Z,41.20
2018-07-19T07:39:15.251Z,41.20
2018-07-19T07:41:50.238Z,39.90
2018-07-19T07:44:24.942Z,39.90
2018-07-19T07:46:59.631Z,38.30
2018-07-19T07:49:34.077Z,40.80
2018-07-19T07:52:09.510Z,40.20
2018-07-19T07:54:43.746Z,40.10
2018-07-19T07:57:18.333Z,39.30
2018-07-19T07:59:52.930Z,39.60
2018-07-19T08:02:27.615Z,41.00
2018-07-19T08:05:02.407Z,39.30
2018-07-19T08:07:37.195Z,40.00
2018-07-19T08:10:11.900Z,41.10
2018-07-19T08:12:46.418Z,41.80
2018-07-19T08:15:21.329Z,41.90
2018-07-19T08:17:57.086Z,40.50
2018-07-19T08:20:32.215Z,40.50
2018-07-19T08:23:06.537Z,40.10
2018-07-19T08:25:41.288Z,40.70
2018-07-19T08:28:15.994Z,40.40
2018-07-19T08:30:50.736Z,39.80
2018-07-19T08:33:25.443Z,40.40
2018-07-19T08:36:00.043Z,36.70
2018-07-19T08:38:34.779Z,37.10
2018-07-19T08:41:09.316Z,39.20
2018-07-19T08:43:44.134Z,37.90
2018-07-19T08:46:18.943Z,37.20
2018-07-19T08:48:53.909Z,38.30
2018-07-19T08:51:28.947Z,37.40
2018-07-19T08:54:03.146Z,36.80
2018-07-19T08:56:37.801Z,36.80
2018-07-19T08:59:13.646Z,37.10
2018-07-19T09:01:48.513Z,36.00
2018-07-19T09:04:23.230Z,36.80
2018-07-19T09:09:32.551Z,35.60
2018-07-19T09:12:07.478Z,34.80
2018-07-19T09:14:42.282Z,34.20
2018-07-19T09:17:17.081Z,35.40
2018-07-19T09:19:51.849Z,35.40
2018-07-19T09:22:26.882Z,35.90
2018-07-19T09:25:01.323Z,33.40
2018-07-19T09:27:36.061Z,32.50
2018-07-19T09:30:10.754Z,33.50
2018-07-19T09:32:45.554Z,33.70
2018-07-19T09:35:20.262Z,33.30
2018-07-19T09:37:54.952Z,35.00
2018-07-19T09:40:29.790Z,34.20
2018-07-19T09:43:04.615Z,33.40
2018-07-19T09:45:39.242Z,34.90
2018-07-19T09:48:13.854Z,35.10
2018-07-19T09:50:48.427Z,33.90
2018-07-19T09:53:23.121Z,31.90
2018-07-19T09:55:57.873Z,32.70
2018-07-19T09:58:32.457Z,33.60
2018-07-19T10:01:12.820Z,29.70
2018-07-19T10:03:49.547Z,29.10
2018-07-19T10:06:23.708Z,29.20
2018-07-19T10:08:58.438Z,31.90
2018-07-19T10:11:33.279Z,30.80
2018-07-19T10:14:09.418Z,30.40
2018-07-19T10:16:43.982Z,31.10
2018-07-19T10:19:19.697Z,32.00
2018-07-19T10:21:54.455Z,32.70
2018-07-19T10:24:29.292Z,34.10
2018-07-19T10:27:03.864Z,34.20
2018-07-19T10:29:39.236Z,36.60
2018-07-19T10:32:14.754Z,32.30
2018-07-19T10:34:49.021Z,32.50
2018-07-19T10:37:23.881Z,32.60
2018-07-19T10:39:59.350Z,32.70
2018-07-19T10:42:34.193Z,36.10
2018-07-19T10:45:13.413Z,35.50
2018-07-19T10:47:47.787Z,33.70
2018-07-19T10:50:22.408Z,34.00
2018-07-19T10:52:57.046Z,33.80
2018-07-19T10:55:31.913Z,33.40
2018-07-19T10:58:06.497Z,34.40
2018-07-19T11:00:41.193Z,36.00
2018-07-19T11:03:15.822Z,37.50
2018-07-19T11:05:50.410Z,38.80
2018-07-19T11:08:25.096Z,35.30
2018-07-19T11:11:00.240Z,36.30
2018-07-19T11:13:34.584Z,35.70
2018-07-19T11:16:09.424Z,36.10
2018-07-19T11:18:44.018Z,36.90
2018-07-19T11:21:18.968Z,37.20
2018-07-19T11:23:53.885Z,37.50
2018-07-19T11:26:28.549Z,38.10
2018-07-19T11:29:03.128Z,38.90
2018-07-19T11:31:38.166Z,39.10
2018-07-19T11:34:13.113Z,39.70
2018-07-19T11:36:47.516Z,40.90
2018-07-19T11:39:23.589Z,40.00
2018-07-19T11:41:58.630Z,40.30
2018-07-19T11:44:33.066Z,40.80
2018-07-19T11:47:07.859Z,42.40
2018-07-19T11:49:42.704Z,41.60
2018-07-19T11:52:18.046Z,41.60
2018-07-19T11:54:52.284Z,41.80
2018-07-19T11:57:27.479Z,41.60
2018-07-19T12:00:02.049Z,41.60
2018-07-19T12:02:36.812Z,41.60
2018-07-19T12:05:11.605Z,41.60
2018-07-19T12:07:46.398Z,42.20
2018-07-19T12:10:21.228Z,43.20
2018-07-19T12:12:56.093Z,43.50
2018-07-19T12:15:30.365Z,43.60
2018-07-19T12:20:39.573Z,42.70
2018-07-19T12:23:14.213Z,43.10
2018-07-19T12:25:49.103Z,41.80
2018-07-19T12:28:23.916Z,40.90
2018-07-19T12:30:58.533Z,40.40
2018-07-19T12:33:33.578Z,40.40
2018-07-19T12:36:07.910Z,40.70
2018-07-19T12:38:43.062Z,42.40
2018-07-19T12:41:17.551Z,42.40
2018-07-19T12:43:52.436Z,41.60
2018-07-19T12:46:27.197Z,41.60
2018-07-19T12:49:01.998Z,42.30
2018-07-19T12:51:37.374Z,42.60
2018-07-19T12:54:11.700Z,42.30
2018-07-19T12:56:46.349Z,41.80
2018-07-19T12:59:21.346Z,41.60
2018-07-19T13:01:55.992Z,41.60
2018-07-19T13:04:30.857Z,42.50
2018-07-19T13:07:05.442Z,41.60
2018-07-19T13:09:40.108Z,43.20
2018-07-19T13:12:14.699Z,40.60
2018-07-19T13:14:49.519Z,40.60
2018-07-19T13:17:24.270Z,41.60
2018-07-19T13:19:58.894Z,41.60
2018-07-19T13:22:33.925Z,43.60
2018-07-19T13:25:08.164Z,42.60
2018-07-19T13:27:42.681Z,42.90
2018-07-19T13:30:17.444Z,42.10
2018-07-19T13:32:52.084Z,41.60
2018-07-19T13:35:26.687Z,41.60
2018-07-19T13:38:01.834Z,43.70
2018-07-19T13:40:36.694Z,41.90
2018-07-19T13:43:11.719Z,41.50
2018-07-19T13:45:46.567Z,41.50
2018-07-19T13:48:21.216Z,41.40
2018-07-19T13:50:56.050Z,41.40
2018-07-19T13:53:47.761Z,41.90
2018-07-19T13:56:22.467Z,41.90
2018-07-19T13:58:57.242Z,43.20
2018-07-19T14:01:32.206Z,39.70
2018-07-19T14:04:07.817Z,40.20
2018-07-19T14:06:42.704Z,41.20
2018-07-19T14:09:17.644Z,41.20
2018-07-19T14:11:51.817Z,41.70
2018-07-19T14:14:26.548Z,40.80
2018-07-19T14:17:01.288Z,41.20
2018-07-19T14:19:36.277Z,42.70
2018-07-19T14:22:10.696Z,41.40
2018-07-19T14:24:45.371Z,40.10
2018-07-19T14:27:20.195Z,39.80
2018-07-19T14:29:54.923Z,40.70
2018-07-19T14:32:29.532Z,39.80
2018-07-19T14:37:39.008Z,40.70
2018-07-19T14:40:14.923Z,40.90
2018-07-19T14:42:49.390Z,40.90
2018-07-19T14:45:23.954Z,40.50
2018-07-19T14:47:59.318Z,40.50
2018-07-19T14:50:34.326Z,39.40
2018-07-19T14:53:08.758Z,39.70
2018-07-19T14:55:43.381Z,39.80
2018-07-19T14:58:18.337Z,39.20
2018-07-19T15:00:52.752Z,39.30
2018-07-19T15:03:27.277Z,38.80
2018-07-19T15:06:02.033Z,39.20
2018-07-19T15:08:36.587Z,40.20
2018-07-19T15:11:11.340Z,39.80
2018-07-19T15:13:45.868Z,40.90
2018-07-19T15:16:21.704Z,40.80
2018-07-19T15:18:56.523Z,40.70
2018-07-19T15:21:31.250Z,40.80
2018-07-19T15:24:06.056Z,40.00
2018-07-19T15:26:41.679Z,39.30
2018-07-19T15:29:16.505Z,39.80
2018-07-19T15:31:50.907Z,40.80
2018-07-19T15:34:25.369Z,40.60
2018-07-19T15:36:59.937Z,40.40
2018-07-19T15:39:34.696Z,40.80
2018-07-19T15:42:09.004Z,41.70
2018-07-19T15:44:45.474Z,41.50
2018-07-19T15:47:20.549Z,40.70
2018-07-19T15:52:29.974Z,40.40
2018-07-19T15:55:04.459Z,40.70
2018-07-19T15:57:39.450Z,39.70
2018-07-19T16:00:13.700Z,40.00
2018-07-19T16:02:48.331Z,40.30
2018-07-19T16:05:22.933Z,40.70
2018-07-19T16:07:57.543Z,41.10
2018-07-19T16:10:32.124Z,41.40
2018-07-19T16:13:06.592Z,40.70
2018-07-19T16:15:41.374Z,40.70
2018-07-19T16:18:16.130Z,41.70
2018-07-19T16:20:50.712Z,43.30
2018-07-19T16:23:25.735Z,42.90
2018-07-19T16:26:01.332Z,42.80
2018-07-19T16:28:35.951Z,44.00
2018-07-19T16:31:10.749Z,43.00
2018-07-19T16:33:45.016Z,43.40
2018-07-19T16:36:19.946Z,42.50
2018-07-19T16:38:54.260Z,43.60
2018-07-19T16:41:29.309Z,40.50
2018-07-19T16:44:04.160Z,40.50
2018-07-19T16:46:38.647Z,41.30
2018-07-19T16:49:13.217Z,42.40
2018-07-19T16:51:47.445Z,42.20
2018-07-19T16:54:22.078Z,43.10
2018-07-19T16:56:56.500Z,42.60
2018-07-19T16:59:31.422Z,42.20
2018-07-19T17:04:40.652Z,42.70
2018-07-19T17:07:15.737Z,42.20
2018-07-19T17:09:50.940Z,42.20
2018-07-19T17:12:25.418Z,42.50
2018-07-19T17:15:00.021Z,42.30
2018-07-19T17:17:35.089Z,42.40
2018-07-19T17:20:09.861Z,42.40
2018-07-19T17:22:44.243Z,42.50
2018-07-19T17:25:18.796Z,42.50
2018-07-19T17:27:53.408Z,43.60
2018-07-19T17:30:28.003Z,43.50
2018-07-19T17:33:02.651Z,43.20
2018-07-19T17:35:37.227Z,42.70
2018-07-19T17:38:11.804Z,42.20
2018-07-19T17:40:46.554Z,42.30
2018-07-19T17:43:21.557Z,41.90
2018-07-19T17:45:56.289Z,41.90
2018-07-19T17:48:30.716Z,42.30
2018-07-19T17:51:05.481Z,42.80
2018-07-19T17:53:39.606Z,42.80
2018-07-19T17:56:15.209Z,43.50
2018-07-19T17:58:49.476Z,43.50
2018-07-19T18:01:24.006Z,43.00
2018-07-19T18:03:59.426Z,44.30
2018-07-19T18:06:34.271Z,43.80
2018-07-19T18:09:10.211Z,43.60
2018-07-19T18:11:44.822Z,44.40
2018-07-19T18:14:19.529Z,44.40
2018-07-19T18:16:54.368Z,42.90
2018-07-19T18:19:28.841Z,42.70
2018-07-19T18:22:03.863Z,42.90
2018-07-19T18:24:38.640Z,42.50
2018-07-19T18:27:13.310Z,42.70
2018-07-19T18:32:22.201Z,42.70
2018-07-19T18:34:56.836Z,43.30
2018-07-19T18:37:31.547Z,42.90
2018-07-19T18:40:06.233Z,43.60
2018-07-19T18:42:47.941Z,43.00
2018-07-19T18:45:22.678Z,43.20
2018-07-19T18:47:57.815Z,44.70
2018-07-19T18:50:31.850Z,44.90
2018-07-19T18:53:06.444Z,46.20
2018-07-19T18:55:41.533Z,46.60
2018-07-19T18:58:16.784Z,45.30
2018-07-19T19:00:51.483Z,46.60
2018-07-19T19:03:25.889Z,47.10
2018-07-19T19:06:00.492Z,48.10
2018-07-19T19:08:35.306Z,48.50
2018-07-19T19:11:10.953Z,49.10
2018-07-19T19:13:46.269Z,49.70
2018-07-19T19:16:21.634Z,49.50
2018-07-19T19:18:56.021Z,49.70
2018-07-19T19:21:32.492Z,50.00
2018-07-19T19:24:07.713Z,50.90
2018-07-19T19:26:42.329Z,51.20
2018-07-19T19:29:17.110Z,51.50
2018-07-19T19:31:53.146Z,51.10
2018-07-19T19:34:28.022Z,52.00
2018-07-19T19:37:02.281Z,51.60
2018-07-19T19:39:36.638Z,52.70
2018-07-19T19:42:11.293Z,53.00
2018-07-19T19:44:46.031Z,53.60
2018-07-19T19:47:20.818Z,54.10
2018-07-19T19:49:55.360Z,54.50
2018-07-19T19:52:29.852Z,54.80
2018-07-19T19:55:04.794Z,54.90
2018-07-19T19:57:40.665Z,55.80
2018-07-19T20:00:16.245Z,56.00
2018-07-19T20:02:51.754Z,56.10
2018-07-19T20:05:27.114Z,56.90
2018-07-19T20:08:02.770Z,57.30
2018-07-19T20:10:37.343Z,57.50
2018-07-19T20:13:12.815Z,58.00
2018-07-19T20:15:47.871Z,58.30
2018-07-19T20:18:23.324Z,58.30
2018-07-19T20:20:58.351Z,58.40
2018-07-19T20:23:32.469Z,58.80
2018-07-19T20:26:07.252Z,59.40
2018-07-19T20:28:41.812Z,59.80
2018-07-19T20:31:16.439Z,60.00
2018-07-19T20:33:51.392Z,60.10
2018-07-19T20:36:26.273Z,60.30
2018-07-19T20:39:01.740Z,60.50
2018-07-19T20:41:36.522Z,60.90
2018-07-19T20:44:11.868Z,61.20
2018-07-19T20:46:46.525Z,61.20
2018-07-19T20:49:21.273Z,61.90
2018-07-19T20:51:56.589Z,62.10
2018-07-19T20:54:32.177Z,62.40
2018-07-19T20:57:06.912Z,62.20
2018-07-19T20:59:42.940Z,62.60
2018-07-19T21:02:17.259Z,62.70
2018-07-19T21:04:51.892Z,62.90
2018-07-19T21:07:26.805Z,62.80
2018-07-19T21:10:01.695Z,63.00
2018-07-19T21:12:36.128Z,63.00
2018-07-19T21:15:10.772Z,63.40
2018-07-19T21:17:45.421Z,63.20
2018-07-19T21:20:20.514Z,63.50
2018-07-19T21:22:54.832Z,63.80
2018-07-19T21:25:29.655Z,64.00
2018-07-19T21:28:04.344Z,64.40
2018-07-19T21:30:38.873Z,64.70
2018-07-19T21:33:13.538Z,64.20
2018-07-19T21:35:48.284Z,64.40
2018-07-19T21:38:22.807Z,64.50
2018-07-19T21:40:57.990Z,64.70
2018-07-19T21:43:32.285Z,64.90
2018-07-19T21:46:07.757Z,65.10
2018-07-19T21:48:42.170Z,65.10
2018-07-19T21:51:16.944Z,65.70
2018-07-19T21:53:51.641Z,66.00
2018-07-19T21:56:26.817Z,66.00
2018-07-19T21:59:01.100Z,66.30
2018-07-19T22:01:40.331Z,66.30
2018-07-19T22:04:16.217Z,66.50
2018-07-19T22:06:50.365Z,66.80
2018-07-19T22:09:24.922Z,67.00
2018-07-19T22:11:59.646Z,67.10
2018-07-19T22:14:34.208Z,67.00
2018-07-19T22:17:08.932Z,67.20
2018-07-19T22:19:43.452Z,67.30
2018-07-19T22:22:18.856Z,67.50
2018-07-19T22:24:53.918Z,67.60
2018-07-19T22:27:28.257Z,67.80
2018-07-19T22:30:03.198Z,68.20
2018-07-19T22:32:37.511Z,68.30
2018-07-19T22:35:13.567Z,68.50
2018-07-19T22:37:47.851Z,68.70
2018-07-19T22:40:22.375Z,68.80
2018-07-19T22:42:56.780Z,68.90
2018-07-19T22:45:31.289Z,69.10
2018-07-19T22:48:06.392Z,69.20
2018-07-19T22:50:41.345Z,69.40
2018-07-19T22:53:16.078Z,69.60
2018-07-19T22:55:50.860Z,69.70
2018-07-19T22:58:26.009Z,69.90
2018-07-19T23:01:00.297Z,70.00
2018-07-19T23:03:35.395Z,70.20
2018-07-19T23:06:10.078Z,70.30
2018-07-19T23:08:45.220Z,70.30
2018-07-19T23:11:20.079Z,70.40
2018-07-19T23:13:55.404Z,70.60
2018-07-19T23:16:29.933Z,70.80
2018-07-19T23:19:04.394Z,71.30
2018-07-19T23:21:40.146Z,71.30
2018-07-19T23:24:14.817Z,71.30
2018-07-19T23:26:49.537Z,72.10
2018-07-19T23:29:24.130Z,71.20
2018-07-19T23:31:58.807Z,71.10
2018-07-19T23:34:33.758Z,71.10
2018-07-19T23:37:14.384Z,71.10
2018-07-19T23:39:55.372Z,71.10
2018-07-19T23:42:35.581Z,71.00
2018-07-19T23:45:16.602Z,71.00
2018-07-19T23:47:52.050Z,71.00
2018-07-19T23:50:26.716Z,70.90
2018-07-19T23:53:01.835Z,71.40
2018-07-19T23:55:36.850Z,71.70
2018-07-19T23:58:11.047Z,71.60
